sensor_id;sensor_type;location;lat;lon;timestamp;temperature;humidity
68248;SHT30;55064;49.636;12.164;2023-02-01T00:01:37;3.04;94.56
68248;SHT30;55064;49.636;12.164;2023-02-01T00:04:08;3.05;95.16
68248;SHT30;55064;49.636;12.164;2023-02-01T00:06:33;3.05;95.63
68248;SHT30;55064;49.636;12.164;2023-02-01T00:09:00;3.04;96.10
68248;SHT30;55064;49.636;12.164;2023-02-01T00:11:25;2.96;96.57
68248;SHT30;55064;49.636;12.164;2023-02-01T00:13:53;2.94;96.70
68248;SHT30;55064;49.636;12.164;2023-02-01T00:16:23;2.90;96.99
68248;SHT30;55064;49.636;12.164;2023-02-01T00:18:51;2.87;97.36
68248;SHT30;55064;49.636;12.164;2023-02-01T00:21:20;2.84;97.43
68248;SHT30;55064;49.636;12.164;2023-02-01T00:23:46;2.80;97.73
68248;SHT30;55064;49.636;12.164;2023-02-01T00:26:19;2.77;97.69
68248;SHT30;55064;49.636;12.164;2023-02-01T00:28:46;2.75;98.28
68248;SHT30;55064;49.636;12.164;2023-02-01T00:31:11;2.70;98.31
68248;SHT30;55064;49.636;12.164;2023-02-01T00:33:37;2.69;98.70
68248;SHT30;55064;49.636;12.164;2023-02-01T00:36:06;2.67;98.66
68248;SHT30;55064;49.636;12.164;2023-02-01T00:38:34;2.75;98.92
68248;SHT30;55064;49.636;12.164;2023-02-01T00:41:05;2.73;98.80
68248;SHT30;55064;49.636;12.164;2023-02-01T00:43:32;2.81;98.10
68248;SHT30;55064;49.636;12.164;2023-02-01T00:45:57;2.83;98.33
68248;SHT30;55064;49.636;12.164;2023-02-01T00:48:24;2.90;98.02
68248;SHT30;55064;49.636;12.164;2023-02-01T00:50:49;2.89;97.96
68248;SHT30;55064;49.636;12.164;2023-02-01T00:53:15;2.87;98.06
68248;SHT30;55064;49.636;12.164;2023-02-01T00:55:40;2.87;98.03
68248;SHT30;55064;49.636;12.164;2023-02-01T00:58:08;2.87;97.70
68248;SHT30;55064;49.636;12.164;2023-02-01T01:00:35;2.87;97.80
68248;SHT30;55064;49.636;12.164;2023-02-01T01:03:00;2.87;97.77
68248;SHT30;55064;49.636;12.164;2023-02-01T01:05:28;2.91;97.93
68248;SHT30;55064;49.636;12.164;2023-02-01T01:07:53;2.90;97.68
68248;SHT30;55064;49.636;12.164;2023-02-01T01:10:19;2.93;97.51
68248;SHT30;55064;49.636;12.164;2023-02-01T01:12:45;2.96;97.39
68248;SHT30;55064;49.636;12.164;2023-02-01T01:15:13;2.96;97.17
68248;SHT30;55064;49.636;12.164;2023-02-01T01:17:39;2.96;97.47
68248;SHT30;55064;49.636;12.164;2023-02-01T01:20:07;2.93;97.39
68248;SHT30;55064;49.636;12.164;2023-02-01T01:22:33;2.94;97.40
68248;SHT30;55064;49.636;12.164;2023-02-01T01:24:58;2.94;97.39
68248;SHT30;55064;49.636;12.164;2023-02-01T01:27:24;2.94;97.20
68248;SHT30;55064;49.636;12.164;2023-02-01T01:29:50;2.96;97.09
68248;SHT30;55064;49.636;12.164;2023-02-01T01:32:15;2.97;97.33
68248;SHT30;55064;49.636;12.164;2023-02-01T01:34:41;2.99;97.29
68248;SHT30;55064;49.636;12.164;2023-02-01T01:37:07;2.94;97.16
68248;SHT30;55064;49.636;12.164;2023-02-01T01:39:32;2.93;96.62
68248;SHT30;55064;49.636;12.164;2023-02-01T01:41:58;2.91;96.81
68248;SHT30;55064;49.636;12.164;2023-02-01T01:47:20;2.91;96.89
68248;SHT30;55064;49.636;12.164;2023-02-01T01:49:47;2.89;96.96
68248;SHT30;55064;49.636;12.164;2023-02-01T01:52:13;2.91;96.84
68248;SHT30;55064;49.636;12.164;2023-02-01T01:54:43;2.89;96.88
68248;SHT30;55064;49.636;12.164;2023-02-01T01:57:45;2.87;97.18
68248;SHT30;55064;49.636;12.164;2023-02-01T02:00:14;2.87;97.28
68248;SHT30;55064;49.636;12.164;2023-02-01T02:02:41;2.87;97.13
68248;SHT30;55064;49.636;12.164;2023-02-01T02:05:11;2.91;97.11
68248;SHT30;55064;49.636;12.164;2023-02-01T02:07:41;2.89;97.29
68248;SHT30;55064;49.636;12.164;2023-02-01T02:10:12;2.84;97.49
68248;SHT30;55064;49.636;12.164;2023-02-01T02:12:39;2.83;97.98
68248;SHT30;55064;49.636;12.164;2023-02-01T02:15:07;2.80;98.32
68248;SHT30;55064;49.636;12.164;2023-02-01T02:25:35;2.79;98.65
68248;SHT30;55064;49.636;12.164;2023-02-01T02:34:28;2.86;98.81
68248;SHT30;55064;49.636;12.164;2023-02-01T02:42:48;2.97;97.98
68248;SHT30;55064;49.636;12.164;2023-02-01T02:51:20;3.04;97.20
68248;SHT30;55064;49.636;12.164;2023-02-01T02:54:11;3.05;97.07
68248;SHT30;55064;49.636;12.164;2023-02-01T02:56:57;3.07;96.70
68248;SHT30;55064;49.636;12.164;2023-02-01T02:59:44;3.07;96.65
68248;SHT30;55064;49.636;12.164;2023-02-01T03:02:30;3.14;96.38
68248;SHT30;55064;49.636;12.164;2023-02-01T03:05:17;3.05;96.96
68248;SHT30;55064;49.636;12.164;2023-02-01T03:07:51;3.04;97.10
68248;SHT30;55064;49.636;12.164;2023-02-01T03:13:16;3.00;97.21
68248;SHT30;55064;49.636;12.164;2023-02-01T03:18:18;2.94;97.40
68248;SHT30;55064;49.636;12.164;2023-02-01T03:20:48;2.96;97.33
68248;SHT30;55064;49.636;12.164;2023-02-01T03:23:18;2.90;97.11
68248;SHT30;55064;49.636;12.164;2023-02-01T03:25:47;2.87;97.53
68248;SHT30;55064;49.636;12.164;2023-02-01T03:28:15;2.87;97.70
68248;SHT30;55064;49.636;12.164;2023-02-01T03:30:47;2.75;96.88
68248;SHT30;55064;49.636;12.164;2023-02-01T03:33:20;2.72;97.16
68248;SHT30;55064;49.636;12.164;2023-02-01T03:40:54;2.66;98.41
68248;SHT30;55064;49.636;12.164;2023-02-01T03:43:21;2.67;98.61
68248;SHT30;55064;49.636;12.164;2023-02-01T03:45:54;2.69;98.67
68248;SHT30;55064;49.636;12.164;2023-02-01T03:48:23;2.64;99.03
68248;SHT30;55064;49.636;12.164;2023-02-01T03:50:55;2.63;98.97
68248;SHT30;55064;49.636;12.164;2023-02-01T03:53:22;2.62;99.00
68248;SHT30;55064;49.636;12.164;2023-02-01T03:55:50;2.59;99.03
68248;SHT30;55064;49.636;12.164;2023-02-01T03:58:22;2.67;98.79
68248;SHT30;55064;49.636;12.164;2023-02-01T04:00:57;2.66;98.85
68248;SHT30;55064;49.636;12.164;2023-02-01T04:03:23;2.66;98.84
68248;SHT30;55064;49.636;12.164;2023-02-01T04:05:53;2.69;98.88
68248;SHT30;55064;49.636;12.164;2023-02-01T04:08:19;2.75;97.94
68248;SHT30;55064;49.636;12.164;2023-02-01T04:10:46;2.81;97.48
68248;SHT30;55064;49.636;12.164;2023-02-01T04:13:12;2.81;97.90
68248;SHT30;55064;49.636;12.164;2023-02-01T04:15:39;2.77;98.38
68248;SHT30;55064;49.636;12.164;2023-02-01T04:18:08;2.72;98.53
68248;SHT30;55064;49.636;12.164;2023-02-01T04:20:34;2.66;98.56
68248;SHT30;55064;49.636;12.164;2023-02-01T04:22:59;2.64;98.99
68248;SHT30;55064;49.636;12.164;2023-02-01T04:25:29;2.62;98.98
68248;SHT30;55064;49.636;12.164;2023-02-01T04:27:54;2.56;98.83
68248;SHT30;55064;49.636;12.164;2023-02-01T04:37:03;2.53;99.05
68248;SHT30;55064;49.636;12.164;2023-02-01T04:42:50;2.53;99.31
68248;SHT30;55064;49.636;12.164;2023-02-01T04:48:37;2.56;99.26
68248;SHT30;55064;49.636;12.164;2023-02-01T04:54:37;2.60;99.03
68248;SHT30;55064;49.636;12.164;2023-02-01T04:57:14;2.59;99.08
68248;SHT30;55064;49.636;12.164;2023-02-01T05:03:01;2.63;99.02
68248;SHT30;55064;49.636;12.164;2023-02-01T05:05:28;2.64;99.08
68248;SHT30;55064;49.636;12.164;2023-02-01T05:07:56;2.62;99.12
68248;SHT30;55064;49.636;12.164;2023-02-01T05:10:26;2.64;98.90
68248;SHT30;55064;49.636;12.164;2023-02-01T05:13:24;2.62;99.13
68248;SHT30;55064;49.636;12.164;2023-02-01T05:16:25;2.62;99.15
68248;SHT30;55064;49.636;12.164;2023-02-01T05:18:54;2.64;98.98
68248;SHT30;55064;49.636;12.164;2023-02-01T05:21:43;2.67;98.88
68248;SHT30;55064;49.636;12.164;2023-02-01T05:27:31;2.70;99.05
68248;SHT30;55064;49.636;12.164;2023-02-01T05:30:04;2.72;99.07
68248;SHT30;55064;49.636;12.164;2023-02-01T05:32:51;2.69;99.06
68248;SHT30;55064;49.636;12.164;2023-02-01T05:38:38;2.70;98.87
68248;SHT30;55064;49.636;12.164;2023-02-01T05:41:04;2.67;99.16
68248;SHT30;55064;49.636;12.164;2023-02-01T05:43:44;2.64;99.24
68248;SHT30;55064;49.636;12.164;2023-02-01T05:46:11;2.64;99.49
68248;SHT30;55064;49.636;12.164;2023-02-01T05:51:59;2.62;99.67
68248;SHT30;55064;49.636;12.164;2023-02-01T05:54:47;2.59;99.80
68248;SHT30;55064;49.636;12.164;2023-02-01T05:57:21;2.56;99.44
68248;SHT30;55064;49.636;12.164;2023-02-01T05:59:56;2.56;99.49
68248;SHT30;55064;49.636;12.164;2023-02-01T06:06:08;2.55;99.33
68248;SHT30;55064;49.636;12.164;2023-02-01T06:08:40;2.52;99.41
68248;SHT30;55064;49.636;12.164;2023-02-01T06:11:05;2.55;99.35
68248;SHT30;55064;49.636;12.164;2023-02-01T06:16:54;2.53;99.36
68248;SHT30;55064;49.636;12.164;2023-02-01T06:22:43;2.52;98.95
68248;SHT30;55064;49.636;12.164;2023-02-01T06:28:31;2.45;99.22
68248;SHT30;55064;49.636;12.164;2023-02-01T06:30:57;2.44;99.27
68248;SHT30;55064;49.636;12.164;2023-02-01T06:33:25;2.44;99.39
68248;SHT30;55064;49.636;12.164;2023-02-01T06:36:00;2.45;99.46
68248;SHT30;55064;49.636;12.164;2023-02-01T06:38:27;2.48;99.54
68248;SHT30;55064;49.636;12.164;2023-02-01T06:40:54;2.44;99.54
68248;SHT30;55064;49.636;12.164;2023-02-01T06:43:22;2.46;99.35
68248;SHT30;55064;49.636;12.164;2023-02-01T06:45:47;2.45;99.39
68248;SHT30;55064;49.636;12.164;2023-02-01T06:48:12;2.46;99.49
68248;SHT30;55064;49.636;12.164;2023-02-01T06:50:38;2.49;99.52
68248;SHT30;55064;49.636;12.164;2023-02-01T06:53:03;2.53;99.11
68248;SHT30;55064;49.636;12.164;2023-02-01T06:55:30;2.56;98.91
68248;SHT30;55064;49.636;12.164;2023-02-01T06:57:56;2.57;98.74
68248;SHT30;55064;49.636;12.164;2023-02-01T07:00:22;2.59;98.68
68248;SHT30;55064;49.636;12.164;2023-02-01T07:02:48;2.64;98.37
68248;SHT30;55064;49.636;12.164;2023-02-01T07:05:15;2.62;98.40
68248;SHT30;55064;49.636;12.164;2023-02-01T07:07:40;2.62;98.33
68248;SHT30;55064;49.636;12.164;2023-02-01T07:10:06;2.66;98.42
68248;SHT30;55064;49.636;12.164;2023-02-01T07:12:31;2.66;98.01
68248;SHT30;55064;49.636;12.164;2023-02-01T07:14:57;2.67;97.76
68248;SHT30;55064;49.636;12.164;2023-02-01T07:17:22;2.67;97.82
68248;SHT30;55064;49.636;12.164;2023-02-01T07:19:48;2.72;97.78
68248;SHT30;55064;49.636;12.164;2023-02-01T07:22:16;2.70;97.27
68248;SHT30;55064;49.636;12.164;2023-02-01T07:24:41;2.70;97.30
68248;SHT30;55064;49.636;12.164;2023-02-01T07:27:08;2.72;97.12
68248;SHT30;55064;49.636;12.164;2023-02-01T07:29:33;2.73;97.08
68248;SHT30;55064;49.636;12.164;2023-02-01T07:31:58;2.75;97.11
68248;SHT30;55064;49.636;12.164;2023-02-01T07:34:26;2.77;96.97
68248;SHT30;55064;49.636;12.164;2023-02-01T07:36:56;2.75;96.84
68248;SHT30;55064;49.636;12.164;2023-02-01T07:39:22;2.72;96.81
68248;SHT30;55064;49.636;12.164;2023-02-01T07:41:51;2.75;96.76
68248;SHT30;55064;49.636;12.164;2023-02-01T07:44:17;2.75;96.60
68248;SHT30;55064;49.636;12.164;2023-02-01T07:46:52;2.79;96.80
68248;SHT30;55064;49.636;12.164;2023-02-01T07:49:19;2.80;96.60
68248;SHT30;55064;49.636;12.164;2023-02-01T07:51:45;2.86;96.58
68248;SHT30;55064;49.636;12.164;2023-02-01T07:54:10;2.90;96.50
68248;SHT30;55064;49.636;12.164;2023-02-01T07:56:35;2.90;96.08
68248;SHT30;55064;49.636;12.164;2023-02-01T07:59:01;2.90;96.17
68248;SHT30;55064;49.636;12.164;2023-02-01T08:01:28;2.93;96.03
68248;SHT30;55064;49.636;12.164;2023-02-01T08:03:58;2.90;96.30
68248;SHT30;55064;49.636;12.164;2023-02-01T08:06:31;2.91;95.83
68248;SHT30;55064;49.636;12.164;2023-02-01T08:08:59;2.94;95.16
68248;SHT30;55064;49.636;12.164;2023-02-01T08:11:26;2.96;95.44
68248;SHT30;55064;49.636;12.164;2023-02-01T08:13:54;3.00;95.15
68248;SHT30;55064;49.636;12.164;2023-02-01T08:16:23;3.00;94.95
68248;SHT30;55064;49.636;12.164;2023-02-01T08:18:49;3.05;94.53
68248;SHT30;55064;49.636;12.164;2023-02-01T08:21:23;3.08;94.49
68248;SHT30;55064;49.636;12.164;2023-02-01T08:23:50;3.12;94.46
68248;SHT30;55064;49.636;12.164;2023-02-01T08:26:19;3.14;93.78
68248;SHT30;55064;49.636;12.164;2023-02-01T08:28:50;3.17;93.34
68248;SHT30;55064;49.636;12.164;2023-02-01T08:31:18;3.14;93.94
68248;SHT30;55064;49.636;12.164;2023-02-01T08:33:49;3.14;93.49
68248;SHT30;55064;49.636;12.164;2023-02-01T08:36:15;3.08;93.34
68248;SHT30;55064;49.636;12.164;2023-02-01T08:38:41;3.08;93.58
68248;SHT30;55064;49.636;12.164;2023-02-01T08:41:12;3.34;93.21
68248;SHT30;55064;49.636;12.164;2023-02-01T08:43:37;3.84;91.06
68248;SHT30;55064;49.636;12.164;2023-02-01T08:46:04;3.82;90.75
68248;SHT30;55064;49.636;12.164;2023-02-01T08:48:31;3.76;91.25
68248;SHT30;55064;49.636;12.164;2023-02-01T08:50:57;3.79;91.17
68248;SHT30;55064;49.636;12.164;2023-02-01T08:53:23;3.70;91.68
68248;SHT30;55064;49.636;12.164;2023-02-01T08:55:49;3.67;91.33
68248;SHT30;55064;49.636;12.164;2023-02-01T08:58:17;3.62;91.26
68248;SHT30;55064;49.636;12.164;2023-02-01T09:00:44;3.73;91.50
68248;SHT30;55064;49.636;12.164;2023-02-01T09:03:11;3.74;90.20
68248;SHT30;55064;49.636;12.164;2023-02-01T09:05:37;3.76;90.74
68248;SHT30;55064;49.636;12.164;2023-02-01T09:08:03;3.80;90.12
68248;SHT30;55064;49.636;12.164;2023-02-01T09:10:28;3.83;90.53
68248;SHT30;55064;49.636;12.164;2023-02-01T09:12:56;3.82;90.30
68248;SHT30;55064;49.636;12.164;2023-02-01T09:15:21;3.83;90.40
68248;SHT30;55064;49.636;12.164;2023-02-01T09:17:46;3.80;90.82
68248;SHT30;55064;49.636;12.164;2023-02-01T09:20:13;3.82;90.20
68248;SHT30;55064;49.636;12.164;2023-02-01T09:22:38;3.83;90.45
68248;SHT30;55064;49.636;12.164;2023-02-01T09:25:04;3.77;90.38
68248;SHT30;55064;49.636;12.164;2023-02-01T09:27:30;3.76;90.87
68248;SHT30;55064;49.636;12.164;2023-02-01T09:29:59;3.74;90.80
68248;SHT30;55064;49.636;12.164;2023-02-01T09:32:26;3.84;89.31
68248;SHT30;55064;49.636;12.164;2023-02-01T09:34:52;3.83;89.20
68248;SHT30;55064;49.636;12.164;2023-02-01T09:37:18;3.84;88.82
68248;SHT30;55064;49.636;12.164;2023-02-01T09:39:43;3.87;88.68
68248;SHT30;55064;49.636;12.164;2023-02-01T09:47:25;3.87;88.54
68248;SHT30;55064;49.636;12.164;2023-02-01T09:50:04;3.91;88.18
68248;SHT30;55064;49.636;12.164;2023-02-01T09:52:43;3.91;87.81
68248;SHT30;55064;49.636;12.164;2023-02-01T09:55:15;3.93;88.03
68248;SHT30;55064;49.636;12.164;2023-02-01T09:57:57;3.95;88.46
68248;SHT30;55064;49.636;12.164;2023-02-01T10:00:27;4.00;87.87
68248;SHT30;55064;49.636;12.164;2023-02-01T10:02:54;4.03;87.77
68248;SHT30;55064;49.636;12.164;2023-02-01T10:08:30;4.05;87.92
68248;SHT30;55064;49.636;12.164;2023-02-01T10:16:36;3.90;88.98
68248;SHT30;55064;49.636;12.164;2023-02-01T10:21:51;3.90;88.15
68248;SHT30;55064;49.636;12.164;2023-02-01T10:24:20;3.91;88.13
68248;SHT30;55064;49.636;12.164;2023-02-01T10:27:25;3.97;87.17
68248;SHT30;55064;49.636;12.164;2023-02-01T10:29:58;4.04;87.16
68248;SHT30;55064;49.636;12.164;2023-02-01T10:32:34;4.11;86.68
68248;SHT30;55064;49.636;12.164;2023-02-01T10:35:16;4.11;86.65
68248;SHT30;55064;49.636;12.164;2023-02-01T10:37:43;4.20;86.09
68248;SHT30;55064;49.636;12.164;2023-02-01T10:40:16;4.25;86.09
68248;SHT30;55064;49.636;12.164;2023-02-01T10:42:42;4.29;86.56
68248;SHT30;55064;49.636;12.164;2023-02-01T10:45:16;4.34;85.92
68248;SHT30;55064;49.636;12.164;2023-02-01T10:47:44;4.34;85.73
68248;SHT30;55064;49.636;12.164;2023-02-01T10:53:00;4.37;85.91
68248;SHT30;55064;49.636;12.164;2023-02-01T10:58:26;4.44;84.79
68248;SHT30;55064;49.636;12.164;2023-02-01T11:01:00;4.46;85.58
68248;SHT30;55064;49.636;12.164;2023-02-01T11:03:57;4.53;86.45
68248;SHT30;55064;49.636;12.164;2023-02-01T11:08:56;4.55;86.90
68248;SHT30;55064;49.636;12.164;2023-02-01T11:11:23;4.42;87.75
68248;SHT30;55064;49.636;12.164;2023-02-01T11:14:14;4.41;88.87
68248;SHT30;55064;49.636;12.164;2023-02-01T11:16:47;4.38;88.98
68248;SHT30;55064;49.636;12.164;2023-02-01T11:19:14;4.42;88.46
68248;SHT30;55064;49.636;12.164;2023-02-01T11:21:41;4.48;88.14
68248;SHT30;55064;49.636;12.164;2023-02-01T11:24:22;4.59;89.23
68248;SHT30;55064;49.636;12.164;2023-02-01T11:26:48;4.56;89.24
68248;SHT30;55064;49.636;12.164;2023-02-01T11:29:17;4.67;89.07
68248;SHT30;55064;49.636;12.164;2023-02-01T11:31:48;4.75;87.91
68248;SHT30;55064;49.636;12.164;2023-02-01T11:34:26;4.73;88.00
68248;SHT30;55064;49.636;12.164;2023-02-01T11:36:56;4.81;87.26
68248;SHT30;55064;49.636;12.164;2023-02-01T11:42:00;4.73;87.24
68248;SHT30;55064;49.636;12.164;2023-02-01T11:44:50;4.94;87.26
68248;SHT30;55064;49.636;12.164;2023-02-01T11:47:25;4.97;86.48
68248;SHT30;55064;49.636;12.164;2023-02-01T11:49:53;4.94;86.43
68248;SHT30;55064;49.636;12.164;2023-02-01T12:15:04;4.32;90.32
68248;SHT30;55064;49.636;12.164;2023-02-01T12:34:55;4.22;89.54
68248;SHT30;55064;49.636;12.164;2023-02-01T12:37:03;4.22;89.43
68248;SHT30;55064;49.636;12.164;2023-02-01T12:39:32;4.27;89.53
68248;SHT30;55064;49.636;12.164;2023-02-01T12:42:10;4.27;89.56
68248;SHT30;55064;49.636;12.164;2023-02-01T12:52:43;4.25;88.89
68248;SHT30;55064;49.636;12.164;2023-02-01T12:57:48;4.34;88.24
68248;SHT30;55064;49.636;12.164;2023-02-01T13:00:18;4.38;88.37
68248;SHT30;55064;49.636;12.164;2023-02-01T13:06:37;4.41;87.27
68248;SHT30;55064;49.636;12.164;2023-02-01T13:08:47;4.45;86.34
68248;SHT30;55064;49.636;12.164;2023-02-01T13:11:26;4.49;86.43
68248;SHT30;55064;49.636;12.164;2023-02-01T13:14:03;4.46;85.75
68248;SHT30;55064;49.636;12.164;2023-02-01T13:16:40;4.50;85.90
68248;SHT30;55064;49.636;12.164;2023-02-01T13:19:26;4.49;85.40
68248;SHT30;55064;49.636;12.164;2023-02-01T13:22:05;4.48;85.62
68248;SHT30;55064;49.636;12.164;2023-02-01T13:27:03;4.49;85.18
68248;SHT30;55064;49.636;12.164;2023-02-01T13:29:33;4.46;85.38
68248;SHT30;55064;49.636;12.164;2023-02-01T13:42:56;4.55;83.12
68248;SHT30;55064;49.636;12.164;2023-02-01T13:45:31;4.56;83.78
68248;SHT30;55064;49.636;12.164;2023-02-01T13:48:01;4.53;83.12
68248;SHT30;55064;49.636;12.164;2023-02-01T13:50:38;4.55;83.21
68248;SHT30;55064;49.636;12.164;2023-02-01T13:55:43;4.58;81.67
68248;SHT30;55064;49.636;12.164;2023-02-01T14:00:41;4.58;82.14
68248;SHT30;55064;49.636;12.164;2023-02-01T14:03:20;4.58;81.59
68248;SHT30;55064;49.636;12.164;2023-02-01T14:08:13;4.59;81.81
68248;SHT30;55064;49.636;12.164;2023-02-01T14:13:38;4.55;81.48
68248;SHT30;55064;49.636;12.164;2023-02-01T14:26:24;4.39;81.38
68248;SHT30;55064;49.636;12.164;2023-02-01T14:28:57;4.34;81.73
68248;SHT30;55064;49.636;12.164;2023-02-01T14:31:35;4.32;81.92
68248;SHT30;55064;49.636;12.164;2023-02-01T14:34:19;4.29;81.73
68248;SHT30;55064;49.636;12.164;2023-02-01T14:36:56;4.29;81.91
68248;SHT30;55064;49.636;12.164;2023-02-01T14:39:26;4.22;82.04
68248;SHT30;55064;49.636;12.164;2023-02-01T14:41:57;4.21;82.38
68248;SHT30;55064;49.636;12.164;2023-02-01T14:44:35;4.18;82.95
68248;SHT30;55064;49.636;12.164;2023-02-01T14:47:09;4.10;83.45
68248;SHT30;55064;49.636;12.164;2023-02-01T14:49:49;4.11;83.74
68248;SHT30;55064;49.636;12.164;2023-02-01T14:52:19;4.10;83.97
68248;SHT30;55064;49.636;12.164;2023-02-01T14:54:54;4.11;84.30
68248;SHT30;55064;49.636;12.164;2023-02-01T14:57:24;4.08;84.15
68248;SHT30;55064;49.636;12.164;2023-02-01T14:59:58;4.08;84.35
68248;SHT30;55064;49.636;12.164;2023-02-01T15:02:26;4.10;84.62
68248;SHT30;55064;49.636;12.164;2023-02-01T15:04:56;4.07;84.94
68248;SHT30;55064;49.636;12.164;2023-02-01T15:07:25;4.03;85.55
68248;SHT30;55064;49.636;12.164;2023-02-01T15:09:54;4.04;85.62
68248;SHT30;55064;49.636;12.164;2023-02-01T15:12:27;4.08;85.15
68248;SHT30;55064;49.636;12.164;2023-02-01T15:17:36;4.04;85.51
68248;SHT30;55064;49.636;12.164;2023-02-01T15:22:30;4.07;85.08
68248;SHT30;55064;49.636;12.164;2023-02-01T15:25:00;4.01;85.32
68248;SHT30;55064;49.636;12.164;2023-02-01T15:27:29;3.98;85.12
68248;SHT30;55064;49.636;12.164;2023-02-01T15:30:05;4.00;85.04
68248;SHT30;55064;49.636;12.164;2023-02-01T15:32:38;3.95;85.46
68248;SHT30;55064;49.636;12.164;2023-02-01T15:35:05;3.93;85.42
68248;SHT30;55064;49.636;12.164;2023-02-01T15:37:31;3.97;85.07
68248;SHT30;55064;49.636;12.164;2023-02-01T15:42:52;3.95;84.71
68248;SHT30;55064;49.636;12.164;2023-02-01T15:45:20;3.95;85.25
68248;SHT30;55064;49.636;12.164;2023-02-01T15:47:49;3.97;84.46
68248;SHT30;55064;49.636;12.164;2023-02-01T15:50:20;3.95;84.98
68248;SHT30;55064;49.636;12.164;2023-02-01T15:52:48;4.01;84.51
68248;SHT30;55064;49.636;12.164;2023-02-01T15:58:05;3.95;84.51
68248;SHT30;55064;49.636;12.164;2023-02-01T16:00:41;3.95;84.34
68248;SHT30;55064;49.636;12.164;2023-02-01T16:03:38;4.00;83.61
68248;SHT30;55064;49.636;12.164;2023-02-01T16:06:11;3.98;83.63
68248;SHT30;55064;49.636;12.164;2023-02-01T16:08:49;4.00;83.89
68248;SHT30;55064;49.636;12.164;2023-02-01T16:12:00;4.03;83.25
68248;SHT30;55064;49.636;12.164;2023-02-01T16:14:26;4.04;83.77
68248;SHT30;55064;49.636;12.164;2023-02-01T16:16:53;4.07;83.18
68248;SHT30;55064;49.636;12.164;2023-02-01T16:19:22;4.05;83.23
68248;SHT30;55064;49.636;12.164;2023-02-01T16:21:54;4.11;83.03
68248;SHT30;55064;49.636;12.164;2023-02-01T16:24:20;4.04;83.52
68248;SHT30;55064;49.636;12.164;2023-02-01T16:26:56;4.04;83.31
68248;SHT30;55064;49.636;12.164;2023-02-01T16:29:34;4.07;83.44
68248;SHT30;55064;49.636;12.164;2023-02-01T16:32:00;4.08;83.23
68248;SHT30;55064;49.636;12.164;2023-02-01T16:34:53;4.07;83.27
68248;SHT30;55064;49.636;12.164;2023-02-01T16:37:41;4.10;83.03
68248;SHT30;55064;49.636;12.164;2023-02-01T16:50:00;4.07;83.43
68248;SHT30;55064;49.636;12.164;2023-02-01T16:55:49;4.17;82.82
68248;SHT30;55064;49.636;12.164;2023-02-01T17:01:36;4.18;82.72
68248;SHT30;55064;49.636;12.164;2023-02-01T17:04:13;4.11;83.55
68248;SHT30;55064;49.636;12.164;2023-02-01T17:06:42;4.14;83.07
68248;SHT30;55064;49.636;12.164;2023-02-01T17:09:12;4.08;83.73
68248;SHT30;55064;49.636;12.164;2023-02-01T17:15:17;4.00;84.62
68248;SHT30;55064;49.636;12.164;2023-02-01T17:17:50;3.98;84.97
68248;SHT30;55064;49.636;12.164;2023-02-01T17:23:41;3.86;86.03
68248;SHT30;55064;49.636;12.164;2023-02-01T17:26:15;3.86;86.23
68248;SHT30;55064;49.636;12.164;2023-02-01T17:32:00;3.80;86.83
68248;SHT30;55064;49.636;12.164;2023-02-01T17:34:33;3.82;86.62
68248;SHT30;55064;49.636;12.164;2023-02-01T17:36:58;3.82;86.97
68248;SHT30;55064;49.636;12.164;2023-02-01T17:39:27;3.76;87.45
68248;SHT30;55064;49.636;12.164;2023-02-01T17:42:28;3.76;87.93
68248;SHT30;55064;49.636;12.164;2023-02-01T17:51:45;3.58;89.40
68248;SHT30;55064;49.636;12.164;2023-02-01T17:54:25;3.49;89.68
68248;SHT30;55064;49.636;12.164;2023-02-01T17:56:53;3.55;89.52
68248;SHT30;55064;49.636;12.164;2023-02-01T18:02:35;3.51;89.96
68248;SHT30;55064;49.636;12.164;2023-02-01T18:05:21;3.46;90.06
68248;SHT30;55064;49.636;12.164;2023-02-01T18:11:12;3.46;89.94
68248;SHT30;55064;49.636;12.164;2023-02-01T18:13:59;3.54;89.08
68248;SHT30;55064;49.636;12.164;2023-02-01T18:16:43;3.55;88.96
68248;SHT30;55064;49.636;12.164;2023-02-01T18:19:12;3.58;88.66
68248;SHT30;55064;49.636;12.164;2023-02-01T18:22:01;3.60;88.13
68248;SHT30;55064;49.636;12.164;2023-02-01T18:24:49;3.63;87.81
68248;SHT30;55064;49.636;12.164;2023-02-01T18:27:29;3.63;88.22
68248;SHT30;55064;49.636;12.164;2023-02-01T18:30:24;3.69;87.19
68248;SHT30;55064;49.636;12.164;2023-02-01T18:33:15;3.73;86.87
68248;SHT30;55064;49.636;12.164;2023-02-01T18:35:45;3.74;87.11
68248;SHT30;55064;49.636;12.164;2023-02-01T18:38:22;3.77;87.06
68248;SHT30;55064;49.636;12.164;2023-02-01T18:40:50;3.80;86.70
68248;SHT30;55064;49.636;12.164;2023-02-01T18:43:34;3.80;86.56
68248;SHT30;55064;49.636;12.164;2023-02-01T18:46:03;3.77;86.87
68248;SHT30;55064;49.636;12.164;2023-02-01T18:48:34;3.77;87.02
68248;SHT30;55064;49.636;12.164;2023-02-01T18:50:59;3.76;87.20
68248;SHT30;55064;49.636;12.164;2023-02-01T18:53:31;3.77;87.20
68248;SHT30;55064;49.636;12.164;2023-02-01T18:56:04;3.82;86.74
68248;SHT30;55064;49.636;12.164;2023-02-01T18:58:36;3.83;87.00
68248;SHT30;55064;49.636;12.164;2023-02-01T19:01:19;3.79;87.19
68248;SHT30;55064;49.636;12.164;2023-02-01T19:03:49;3.76;87.16
68248;SHT30;55064;49.636;12.164;2023-02-01T19:06:19;3.80;87.24
68248;SHT30;55064;49.636;12.164;2023-02-01T19:08:46;3.83;87.05
68248;SHT30;55064;49.636;12.164;2023-02-01T19:11:17;3.82;87.15
68248;SHT30;55064;49.636;12.164;2023-02-01T19:13:42;3.80;86.94
68248;SHT30;55064;49.636;12.164;2023-02-01T19:16:11;3.83;87.07
68248;SHT30;55064;49.636;12.164;2023-02-01T19:18:38;3.83;87.09
68248;SHT30;55064;49.636;12.164;2023-02-01T19:21:16;3.84;87.26
68248;SHT30;55064;49.636;12.164;2023-02-01T19:23:43;3.82;87.47
68248;SHT30;55064;49.636;12.164;2023-02-01T19:26:14;3.86;87.08
68248;SHT30;55064;49.636;12.164;2023-02-01T19:28:40;3.83;87.22
68248;SHT30;55064;49.636;12.164;2023-02-01T19:31:20;3.79;87.66
68248;SHT30;55064;49.636;12.164;2023-02-01T19:33:45;3.77;87.44
68248;SHT30;55064;49.636;12.164;2023-02-01T19:36:32;3.82;87.14
68248;SHT30;55064;49.636;12.164;2023-02-01T19:39:11;3.84;86.58
68248;SHT30;55064;49.636;12.164;2023-02-01T19:48:16;3.79;89.08
68248;SHT30;55064;49.636;12.164;2023-02-01T19:51:02;3.63;90.32
68248;SHT30;55064;49.636;12.164;2023-02-01T19:53:33;3.55;90.63
68248;SHT30;55064;49.636;12.164;2023-02-01T19:56:00;3.55;91.04
68248;SHT30;55064;49.636;12.164;2023-02-01T19:58:26;3.49;91.21
68248;SHT30;55064;49.636;12.164;2023-02-01T20:04:38;3.46;91.44
68248;SHT30;55064;49.636;12.164;2023-02-01T20:07:21;3.46;91.28
68248;SHT30;55064;49.636;12.164;2023-02-01T20:09:59;3.51;91.00
68248;SHT30;55064;49.636;12.164;2023-02-01T20:12:26;3.51;90.99
68248;SHT30;55064;49.636;12.164;2023-02-01T20:14:54;3.52;91.18